createdAt,value
2023-01-03T00:08:44.401Z,0.00
2023-01-03T00:23:45.144Z,0.00
2023-01-03T00:38:45.320Z,0.00
2023-01-03T00:53:45.497Z,0.00
2023-01-03T01:08:46.297Z,0.00
2023-01-03T01:23:46.819Z,0.00
2023-01-03T01:38:47.091Z,0.00
2023-01-03T01:53:49.067Z,0.00
2023-01-03T02:08:51.607Z,0.00
2023-01-03T02:23:53.385Z,0.00
2023-01-03T02:38:53.545Z,0.00
2023-01-03T02:53:53.791Z,0.00
2023-01-03T03:08:53.985Z,0.00
2023-01-03T03:23:54.279Z,0.00
2023-01-03T03:38:56.258Z,0.00
2023-01-03T03:53:58.167Z,0.00
2023-01-03T04:08:59.096Z,0.00
2023-01-03T04:23:59.500Z,0.00
2023-01-03T04:38:59.717Z,0.00
2023-01-03T04:54:00.933Z,0.00
2023-01-03T05:09:01.112Z,0.00
2023-01-03T05:24:02.378Z,0.00
2023-01-03T05:39:03.506Z,0.00
2023-01-03T05:54:03.740Z,0.00
2023-01-03T06:09:05.453Z,0.00
2023-01-03T06:24:05.691Z,0.00
2023-01-03T06:39:05.908Z,0.00
2023-01-03T06:54:07.108Z,0.00
2023-01-03T07:09:07.341Z,5.62
2023-01-03T07:24:07.491Z,16.88
2023-01-03T07:39:07.648Z,39.38
2023-01-03T07:54:08.215Z,67.50
2023-01-03T08:09:08.512Z,90.00
2023-01-03T08:24:11.798Z,264.38
2023-01-03T08:39:11.826Z,180.00
2023-01-03T08:54:12.200Z,680.62
2023-01-03T09:09:12.657Z,680.62
2023-01-03T09:24:12.969Z,961.88
2023-01-03T09:39:13.441Z,1209.38
2023-01-03T09:54:13.785Z,1777.50
2023-01-03T10:09:13.986Z,1501.88
2023-01-03T10:24:14.498Z,1912.50
2023-01-03T10:39:14.890Z,416.25
2023-01-03T10:54:15.435Z,2098.12
2023-01-03T11:09:16.370Z,928.12
2023-01-03T11:24:17.274Z,967.50
2023-01-03T11:39:22.815Z,331.88
2023-01-03T11:54:23.910Z,163.12
2023-01-03T12:09:24.430Z,191.25
2023-01-03T12:24:24.750Z,286.88
2023-01-03T12:39:30.851Z,286.88
2023-01-03T12:54:30.417Z,421.88
2023-01-03T13:09:31.036Z,348.75
2023-01-03T13:24:31.534Z,253.12
2023-01-03T13:39:31.602Z,275.62
2023-01-03T13:54:33.362Z,185.62
2023-01-03T14:09:35.230Z,135.00
2023-01-03T14:24:36.078Z,78.75
2023-01-03T14:40:25.762Z,67.50
2023-01-03T14:55:25.949Z,39.38
2023-01-03T15:10:26.539Z,11.25
2023-01-03T15:25:28.119Z,0.00
2023-01-03T15:40:28.663Z,0.00
2023-01-03T15:55:29.384Z,0.00
2023-01-03T16:10:30.982Z,0.00
2023-01-03T16:25:31.522Z,0.00
2023-01-03T16:40:33.198Z,0.00
2023-01-03T16:55:33.745Z,0.00
2023-01-03T17:10:35.627Z,0.00
2023-01-03T17:25:36.250Z,0.00
2023-01-03T17:40:36.902Z,0.00
2023-01-03T17:55:38.749Z,0.00
2023-01-03T18:10:45.739Z,0.00
2023-01-03T18:25:44.751Z,0.00
2023-01-03T18:40:45.242Z,0.00
2023-01-03T18:55:49.000Z,0.00
2023-01-03T19:10:50.929Z,0.00
2023-01-03T19:25:53.035Z,0.00
2023-01-03T19:40:55.636Z,0.00
2023-01-03T19:55:57.574Z,0.00
2023-01-03T20:10:58.680Z,0.00
2023-01-03T20:26:00.717Z,0.00
2023-01-03T20:41:00.891Z,0.00
2023-01-03T20:56:06.010Z,0.00
2023-01-03T21:11:08.344Z,0.00
2023-01-03T21:26:08.234Z,0.00
2023-01-03T21:41:10.066Z,0.00
2023-01-03T21:56:12.581Z,0.00
2023-01-03T22:11:14.328Z,0.00
2023-01-03T22:26:16.721Z,0.00
2023-01-03T22:41:18.620Z,0.00
2023-01-03T22:56:20.879Z,0.00
2023-01-03T23:11:20.808Z,0.00
2023-01-03T23:26:22.599Z,0.00
2023-01-03T23:41:24.708Z,0.00
2023-01-03T23:56:24.857Z,0.00
